sensor_id;sensor_type;location;lat;lon;timestamp;P1;durP1;ratioP1;P2;durP2;ratioP2
47772;SDS011;33534;51.028;13.716;2022-11-20T00:05:44;28.48;;;14.35;;
47772;SDS011;33534;51.028;13.716;2022-11-20T00:13:43;28.60;;;13.90;;
47772;SDS011;33534;51.028;13.716;2022-11-20T00:16:31;28.58;;;14.95;;
47772;SDS011;33534;51.028;13.716;2022-11-20T00:19:06;31.75;;;15.52;;
47772;SDS011;33534;51.028;13.716;2022-11-20T00:21:46;32.10;;;15.73;;
47772;SDS011;33534;51.028;13.716;2022-11-20T00:24:26;29.00;;;15.40;;
47772;SDS011;33534;51.028;13.716;2022-11-20T00:27:04;30.67;;;15.13;;
47772;SDS011;33534;51.028;13.716;2022-11-20T00:29:42;29.13;;;13.27;;
47772;SDS011;33534;51.028;13.716;2022-11-20T00:32:27;27.27;;;13.27;;
47772;SDS011;33534;51.028;13.716;2022-11-20T00:35:10;25.33;;;13.55;;
47772;SDS011;33534;51.028;13.716;2022-11-20T00:37:47;29.30;;;14.57;;
47772;SDS011;33534;51.028;13.716;2022-11-20T00:40:36;25.70;;;12.90;;
47772;SDS011;33534;51.028;13.716;2022-11-20T00:43:05;26.40;;;13.90;;
47772;SDS011;33534;51.028;13.716;2022-11-20T00:45:59;28.50;;;13.80;;
47772;SDS011;33534;51.028;13.716;2022-11-20T00:48:34;29.73;;;14.35;;
47772;SDS011;33534;51.028;13.716;2022-11-20T00:51:09;26.10;;;13.48;;
47772;SDS011;33534;51.028;13.716;2022-11-20T00:53:39;27.38;;;13.38;;
47772;SDS011;33534;51.028;13.716;2022-11-20T00:59:12;27.10;;;12.57;;
47772;SDS011;33534;51.028;13.716;2022-11-20T01:01:50;26.13;;;12.05;;
47772;SDS011;33534;51.028;13.716;2022-11-20T01:04:24;30.63;;;14.57;;
47772;SDS011;33534;51.028;13.716;2022-11-20T01:07:00;28.92;;;13.55;;
47772;SDS011;33534;51.028;13.716;2022-11-20T01:09:32;24.52;;;12.45;;
47772;SDS011;33534;51.028;13.716;2022-11-20T01:12:03;26.13;;;12.93;;
47772;SDS011;33534;51.028;13.716;2022-11-20T01:14:32;31.38;;;15.15;;
47772;SDS011;33534;51.028;13.716;2022-11-20T01:17:12;26.73;;;13.32;;
47772;SDS011;33534;51.028;13.716;2022-11-20T01:19:47;32.50;;;15.00;;
47772;SDS011;33534;51.028;13.716;2022-11-20T01:22:21;29.90;;;14.10;;
47772;SDS011;33534;51.028;13.716;2022-11-20T01:27:43;29.00;;;13.73;;
47772;SDS011;33534;51.028;13.716;2022-11-20T01:30:20;29.63;;;13.98;;
47772;SDS011;33534;51.028;13.716;2022-11-20T01:33:04;28.95;;;12.25;;
47772;SDS011;33534;51.028;13.716;2022-11-20T01:35:33;26.10;;;12.82;;
47772;SDS011;33534;51.028;13.716;2022-11-20T01:38:01;25.85;;;12.85;;
47772;SDS011;33534;51.028;13.716;2022-11-20T01:40:28;28.67;;;12.93;;
47772;SDS011;33534;51.028;13.716;2022-11-20T01:42:57;29.98;;;12.90;;
47772;SDS011;33534;51.028;13.716;2022-11-20T01:48:40;27.33;;;13.20;;
47772;SDS011;33534;51.028;13.716;2022-11-20T01:51:12;29.27;;;14.10;;
47772;SDS011;33534;51.028;13.716;2022-11-20T01:53:39;27.83;;;13.10;;
47772;SDS011;33534;51.028;13.716;2022-11-20T01:56:07;26.23;;;12.73;;
47772;SDS011;33534;51.028;13.716;2022-11-20T01:58:35;24.33;;;12.30;;
47772;SDS011;33534;51.028;13.716;2022-11-20T02:01:05;26.55;;;11.95;;
47772;SDS011;33534;51.028;13.716;2022-11-20T02:03:33;26.92;;;13.43;;
47772;SDS011;33534;51.028;13.716;2022-11-20T02:08:34;26.45;;;11.63;;
47772;SDS011;33534;51.028;13.716;2022-11-20T02:11:01;27.77;;;13.63;;
47772;SDS011;33534;51.028;13.716;2022-11-20T02:13:27;27.33;;;12.52;;
47772;SDS011;33534;51.028;13.716;2022-11-20T02:18:38;25.98;;;12.43;;
47772;SDS011;33534;51.028;13.716;2022-11-20T02:23:38;25.83;;;12.00;;
47772;SDS011;33534;51.028;13.716;2022-11-20T02:26:09;26.80;;;12.77;;
47772;SDS011;33534;51.028;13.716;2022-11-20T02:28:38;25.98;;;12.15;;
47772;SDS011;33534;51.028;13.716;2022-11-20T02:31:05;23.65;;;11.85;;
47772;SDS011;33534;51.028;13.716;2022-11-20T02:33:31;23.25;;;11.30;;
47772;SDS011;33534;51.028;13.716;2022-11-20T02:35:57;20.90;;;10.52;;
47772;SDS011;33534;51.028;13.716;2022-11-20T02:38:23;27.23;;;12.57;;
47772;SDS011;33534;51.028;13.716;2022-11-20T02:40:49;22.92;;;11.65;;
47772;SDS011;33534;51.028;13.716;2022-11-20T02:43:15;35.25;;;12.38;;
47772;SDS011;33534;51.028;13.716;2022-11-20T02:45:41;26.38;;;12.13;;
47772;SDS011;33534;51.028;13.716;2022-11-20T02:48:07;22.27;;;10.93;;
47772;SDS011;33534;51.028;13.716;2022-11-20T02:50:36;26.73;;;11.77;;
47772;SDS011;33534;51.028;13.716;2022-11-20T02:53:02;26.70;;;12.07;;
47772;SDS011;33534;51.028;13.716;2022-11-20T02:55:28;24.55;;;11.82;;
47772;SDS011;33534;51.028;13.716;2022-11-20T02:57:57;27.63;;;11.77;;
47772;SDS011;33534;51.028;13.716;2022-11-20T03:00:23;24.23;;;11.10;;
47772;SDS011;33534;51.028;13.716;2022-11-20T03:02:49;21.42;;;11.13;;
47772;SDS011;33534;51.028;13.716;2022-11-20T03:05:15;26.38;;;11.85;;
47772;SDS011;33534;51.028;13.716;2022-11-20T03:07:42;29.38;;;11.68;;
47772;SDS011;33534;51.028;13.716;2022-11-20T03:10:09;21.38;;;11.20;;
47772;SDS011;33534;51.028;13.716;2022-11-20T03:12:35;22.00;;;10.55;;
47772;SDS011;33534;51.028;13.716;2022-11-20T03:15:01;26.08;;;11.88;;
47772;SDS011;33534;51.028;13.716;2022-11-20T03:17:27;24.08;;;11.27;;
47772;SDS011;33534;51.028;13.716;2022-11-20T03:19:54;21.50;;;11.30;;
47772;SDS011;33534;51.028;13.716;2022-11-20T03:22:20;22.30;;;11.13;;
47772;SDS011;33534;51.028;13.716;2022-11-20T03:24:51;24.17;;;12.60;;
47772;SDS011;33534;51.028;13.716;2022-11-20T03:27:18;21.90;;;10.45;;
47772;SDS011;33534;51.028;13.716;2022-11-20T03:29:44;23.02;;;11.65;;
47772;SDS011;33534;51.028;13.716;2022-11-20T03:32:10;27.88;;;12.38;;
47772;SDS011;33534;51.028;13.716;2022-11-20T03:34:36;23.17;;;11.50;;
47772;SDS011;33534;51.028;13.716;2022-11-20T03:37:02;24.25;;;10.93;;
47772;SDS011;33534;51.028;13.716;2022-11-20T03:39:28;22.23;;;11.40;;
47772;SDS011;33534;51.028;13.716;2022-11-20T03:41:54;21.10;;;11.20;;
47772;SDS011;33534;51.028;13.716;2022-11-20T03:44:20;24.50;;;11.00;;
47772;SDS011;33534;51.028;13.716;2022-11-20T03:46:47;24.83;;;12.02;;
47772;SDS011;33534;51.028;13.716;2022-11-20T03:49:13;22.52;;;11.77;;
47772;SDS011;33534;51.028;13.716;2022-11-20T03:51:39;22.52;;;11.50;;
47772;SDS011;33534;51.028;13.716;2022-11-20T03:54:06;21.70;;;10.75;;
47772;SDS011;33534;51.028;13.716;2022-11-20T03:56:33;24.55;;;11.32;;
47772;SDS011;33534;51.028;13.716;2022-11-20T03:59:00;24.35;;;11.80;;
47772;SDS011;33534;51.028;13.716;2022-11-20T04:01:27;22.42;;;11.10;;
47772;SDS011;33534;51.028;13.716;2022-11-20T04:03:54;21.65;;;10.82;;
47772;SDS011;33534;51.028;13.716;2022-11-20T04:06:21;22.75;;;10.80;;
47772;SDS011;33534;51.028;13.716;2022-11-20T04:08:48;24.00;;;11.30;;
47772;SDS011;33534;51.028;13.716;2022-11-20T04:11:15;25.38;;;11.40;;
47772;SDS011;33534;51.028;13.716;2022-11-20T04:13:42;25.95;;;12.18;;
47772;SDS011;33534;51.028;13.716;2022-11-20T04:16:08;23.98;;;11.73;;
47772;SDS011;33534;51.028;13.716;2022-11-20T04:18:35;24.90;;;11.65;;
47772;SDS011;33534;51.028;13.716;2022-11-20T04:21:02;23.33;;;11.52;;
47772;SDS011;33534;51.028;13.716;2022-11-20T04:23:28;22.98;;;10.35;;
47772;SDS011;33534;51.028;13.716;2022-11-20T04:25:59;24.45;;;11.07;;
47772;SDS011;33534;51.028;13.716;2022-11-20T04:28:26;22.42;;;11.43;;
47772;SDS011;33534;51.028;13.716;2022-11-20T04:30:52;22.95;;;10.55;;
47772;SDS011;33534;51.028;13.716;2022-11-20T04:33:18;23.35;;;11.57;;
47772;SDS011;33534;51.028;13.716;2022-11-20T04:35:44;21.38;;;10.80;;
47772;SDS011;33534;51.028;13.716;2022-11-20T04:38:12;22.08;;;11.00;;
47772;SDS011;33534;51.028;13.716;2022-11-20T04:40:40;26.13;;;11.90;;
47772;SDS011;33534;51.028;13.716;2022-11-20T04:43:06;25.27;;;12.05;;
47772;SDS011;33534;51.028;13.716;2022-11-20T04:45:32;24.50;;;11.63;;
47772;SDS011;33534;51.028;13.716;2022-11-20T04:47:58;23.52;;;11.10;;
47772;SDS011;33534;51.028;13.716;2022-11-20T04:50:24;24.38;;;11.13;;
47772;SDS011;33534;51.028;13.716;2022-11-20T04:52:51;21.08;;;10.07;;
47772;SDS011;33534;51.028;13.716;2022-11-20T04:55:17;23.63;;;11.07;;
47772;SDS011;33534;51.028;13.716;2022-11-20T04:57:53;22.60;;;11.07;;
47772;SDS011;33534;51.028;13.716;2022-11-20T05:00:19;19.73;;;10.35;;
47772;SDS011;33534;51.028;13.716;2022-11-20T05:02:49;22.55;;;9.70;;
47772;SDS011;33534;51.028;13.716;2022-11-20T05:05:15;21.75;;;10.85;;
47772;SDS011;33534;51.028;13.716;2022-11-20T05:07:41;21.50;;;10.38;;
47772;SDS011;33534;51.028;13.716;2022-11-20T05:10:09;25.77;;;11.88;;
47772;SDS011;33534;51.028;13.716;2022-11-20T05:12:35;25.13;;;11.00;;
47772;SDS011;33534;51.028;13.716;2022-11-20T05:15:01;20.98;;;9.85;;
47772;SDS011;33534;51.028;13.716;2022-11-20T05:17:28;20.95;;;9.95;;
47772;SDS011;33534;51.028;13.716;2022-11-20T05:19:54;20.65;;;9.88;;
47772;SDS011;33534;51.028;13.716;2022-11-20T05:22:20;22.58;;;10.48;;
47772;SDS011;33534;51.028;13.716;2022-11-20T05:24:46;27.40;;;11.27;;
47772;SDS011;33534;51.028;13.716;2022-11-20T05:27:12;19.08;;;10.32;;
47772;SDS011;33534;51.028;13.716;2022-11-20T05:29:38;22.02;;;10.05;;
47772;SDS011;33534;51.028;13.716;2022-11-20T05:32:07;20.25;;;9.55;;
47772;SDS011;33534;51.028;13.716;2022-11-20T05:34:34;21.23;;;10.50;;
47772;SDS011;33534;51.028;13.716;2022-11-20T05:37:01;17.25;;;8.68;;
47772;SDS011;33534;51.028;13.716;2022-11-20T05:39:27;20.15;;;9.32;;
47772;SDS011;33534;51.028;13.716;2022-11-20T05:41:53;20.67;;;9.02;;
47772;SDS011;33534;51.028;13.716;2022-11-20T05:44:38;21.60;;;9.13;;
47772;SDS011;33534;51.028;13.716;2022-11-20T05:47:07;21.08;;;10.23;;
47772;SDS011;33534;51.028;13.716;2022-11-20T05:49:33;21.83;;;9.40;;
47772;SDS011;33534;51.028;13.716;2022-11-20T05:51:59;18.73;;;9.57;;
47772;SDS011;33534;51.028;13.716;2022-11-20T05:54:25;18.83;;;9.98;;
47772;SDS011;33534;51.028;13.716;2022-11-20T05:56:53;19.20;;;9.05;;
47772;SDS011;33534;51.028;13.716;2022-11-20T05:59:27;19.92;;;8.63;;
47772;SDS011;33534;51.028;13.716;2022-11-20T06:01:53;17.77;;;8.75;;
47772;SDS011;33534;51.028;13.716;2022-11-20T06:04:19;17.15;;;9.23;;
47772;SDS011;33534;51.028;13.716;2022-11-20T06:06:45;18.50;;;8.98;;
47772;SDS011;33534;51.028;13.716;2022-11-20T06:09:11;17.77;;;9.05;;
47772;SDS011;33534;51.028;13.716;2022-11-20T06:11:38;17.42;;;8.48;;
47772;SDS011;33534;51.028;13.716;2022-11-20T06:14:04;17.50;;;8.75;;
47772;SDS011;33534;51.028;13.716;2022-11-20T06:16:30;18.98;;;8.43;;
47772;SDS011;33534;51.028;13.716;2022-11-20T06:18:59;17.55;;;8.52;;
47772;SDS011;33534;51.028;13.716;2022-11-20T06:21:25;18.40;;;8.95;;
47772;SDS011;33534;51.028;13.716;2022-11-20T06:23:51;16.25;;;8.35;;
47772;SDS011;33534;51.028;13.716;2022-11-20T06:26:19;18.05;;;9.07;;
47772;SDS011;33534;51.028;13.716;2022-11-20T06:28:45;15.68;;;7.47;;
47772;SDS011;33534;51.028;13.716;2022-11-20T06:31:17;19.10;;;9.63;;
47772;SDS011;33534;51.028;13.716;2022-11-20T06:33:43;17.52;;;8.02;;
47772;SDS011;33534;51.028;13.716;2022-11-20T06:36:10;18.13;;;8.88;;
47772;SDS011;33534;51.028;13.716;2022-11-20T06:38:36;18.50;;;7.82;;
47772;SDS011;33534;51.028;13.716;2022-11-20T06:41:03;16.95;;;8.20;;
47772;SDS011;33534;51.028;13.716;2022-11-20T06:43:29;18.00;;;9.35;;
47772;SDS011;33534;51.028;13.716;2022-11-20T06:45:56;16.83;;;8.23;;
47772;SDS011;33534;51.028;13.716;2022-11-20T06:48:22;19.05;;;8.50;;
47772;SDS011;33534;51.028;13.716;2022-11-20T06:50:51;15.00;;;8.32;;
47772;SDS011;33534;51.028;13.716;2022-11-20T06:53:23;18.25;;;9.48;;
47772;SDS011;33534;51.028;13.716;2022-11-20T06:55:52;18.92;;;9.65;;
47772;SDS011;33534;51.028;13.716;2022-11-20T06:58:21;18.80;;;9.73;;
47772;SDS011;33534;51.028;13.716;2022-11-20T07:00:52;23.85;;;10.38;;
47772;SDS011;33534;51.028;13.716;2022-11-20T07:03:18;21.90;;;10.40;;
47772;SDS011;33534;51.028;13.716;2022-11-20T07:05:45;19.15;;;10.20;;
47772;SDS011;33534;51.028;13.716;2022-11-20T07:08:11;20.25;;;10.68;;
47772;SDS011;33534;51.028;13.716;2022-11-20T07:10:37;21.17;;;10.75;;
47772;SDS011;33534;51.028;13.716;2022-11-20T07:13:03;23.67;;;11.15;;
47772;SDS011;33534;51.028;13.716;2022-11-20T07:15:29;21.08;;;10.15;;
47772;SDS011;33534;51.028;13.716;2022-11-20T07:17:58;18.70;;;9.60;;
47772;SDS011;33534;51.028;13.716;2022-11-20T07:20:24;17.25;;;9.20;;
47772;SDS011;33534;51.028;13.716;2022-11-20T07:22:57;20.17;;;10.32;;
47772;SDS011;33534;51.028;13.716;2022-11-20T07:25:23;16.98;;;9.63;;
47772;SDS011;33534;51.028;13.716;2022-11-20T07:27:50;21.27;;;9.85;;
47772;SDS011;33534;51.028;13.716;2022-11-20T07:30:16;19.35;;;10.52;;
47772;SDS011;33534;51.028;13.716;2022-11-20T07:32:42;16.83;;;8.75;;
47772;SDS011;33534;51.028;13.716;2022-11-20T07:35:14;16.25;;;8.77;;
47772;SDS011;33534;51.028;13.716;2022-11-20T07:37:40;13.40;;;7.57;;
47772;SDS011;33534;51.028;13.716;2022-11-20T07:40:07;16.98;;;7.82;;
47772;SDS011;33534;51.028;13.716;2022-11-20T07:42:33;16.23;;;8.63;;
47772;SDS011;33534;51.028;13.716;2022-11-20T07:44:59;16.10;;;8.85;;
47772;SDS011;33534;51.028;13.716;2022-11-20T07:47:25;15.00;;;8.43;;
47772;SDS011;33534;51.028;13.716;2022-11-20T07:49:51;16.05;;;8.68;;
47772;SDS011;33534;51.028;13.716;2022-11-20T07:52:20;16.95;;;8.88;;
47772;SDS011;33534;51.028;13.716;2022-11-20T07:54:46;15.05;;;7.82;;
47772;SDS011;33534;51.028;13.716;2022-11-20T07:57:12;17.30;;;9.90;;
47772;SDS011;33534;51.028;13.716;2022-11-20T07:59:44;16.75;;;9.38;;
47772;SDS011;33534;51.028;13.716;2022-11-20T08:02:12;17.70;;;9.23;;
47772;SDS011;33534;51.028;13.716;2022-11-20T08:04:40;16.85;;;8.70;;
47772;SDS011;33534;51.028;13.716;2022-11-20T08:07:06;18.17;;;8.82;;
47772;SDS011;33534;51.028;13.716;2022-11-20T08:09:33;18.52;;;9.27;;
47772;SDS011;33534;51.028;13.716;2022-11-20T08:11:59;15.07;;;8.40;;
47772;SDS011;33534;51.028;13.716;2022-11-20T08:14:46;17.70;;;9.85;;
47772;SDS011;33534;51.028;13.716;2022-11-20T08:17:12;18.20;;;10.15;;
47772;SDS011;33534;51.028;13.716;2022-11-20T08:19:38;21.55;;;11.15;;
47772;SDS011;33534;51.028;13.716;2022-11-20T08:22:05;21.48;;;11.30;;
47772;SDS011;33534;51.028;13.716;2022-11-20T08:24:43;22.38;;;11.43;;
47772;SDS011;33534;51.028;13.716;2022-11-20T08:27:09;22.52;;;12.77;;
47772;SDS011;33534;51.028;13.716;2022-11-20T08:29:35;18.52;;;10.48;;
47772;SDS011;33534;51.028;13.716;2022-11-20T08:32:05;19.85;;;10.70;;
47772;SDS011;33534;51.028;13.716;2022-11-20T08:34:31;23.45;;;11.35;;
47772;SDS011;33534;51.028;13.716;2022-11-20T08:37:04;20.98;;;10.93;;
47772;SDS011;33534;51.028;13.716;2022-11-20T08:39:30;23.73;;;12.02;;
47772;SDS011;33534;51.028;13.716;2022-11-20T08:42:00;22.35;;;12.50;;
47772;SDS011;33534;51.028;13.716;2022-11-20T08:44:26;23.90;;;13.38;;
47772;SDS011;33534;51.028;13.716;2022-11-20T08:46:52;27.02;;;13.38;;
47772;SDS011;33534;51.028;13.716;2022-11-20T08:49:21;26.17;;;13.55;;
47772;SDS011;33534;51.028;13.716;2022-11-20T08:51:50;25.42;;;13.77;;
47772;SDS011;33534;51.028;13.716;2022-11-20T08:54:18;24.17;;;12.88;;
47772;SDS011;33534;51.028;13.716;2022-11-20T08:56:49;26.77;;;14.07;;
47772;SDS011;33534;51.028;13.716;2022-11-20T08:59:18;26.60;;;15.02;;
47772;SDS011;33534;51.028;13.716;2022-11-20T09:01:44;24.02;;;12.70;;
47772;SDS011;33534;51.028;13.716;2022-11-20T09:04:10;24.35;;;12.90;;
47772;SDS011;33534;51.028;13.716;2022-11-20T09:06:39;31.45;;;15.23;;
47772;SDS011;33534;51.028;13.716;2022-11-20T09:15:04;27.17;;;13.15;;
47772;SDS011;33534;51.028;13.716;2022-11-20T09:20:42;26.88;;;13.50;;
47772;SDS011;33534;51.028;13.716;2022-11-20T09:35:27;36.88;;;16.70;;
47772;SDS011;33534;51.028;13.716;2022-11-20T09:37:53;28.75;;;14.80;;
47772;SDS011;33534;51.028;13.716;2022-11-20T09:40:26;28.58;;;15.05;;
47772;SDS011;33534;51.028;13.716;2022-11-20T09:46:40;31.15;;;14.82;;
47772;SDS011;33534;51.028;13.716;2022-11-20T09:55:16;26.25;;;13.63;;
47772;SDS011;33534;51.028;13.716;2022-11-20T10:10:05;27.77;;;12.48;;
47772;SDS011;33534;51.028;13.716;2022-11-20T10:30:30;29.80;;;14.32;;
47772;SDS011;33534;51.028;13.716;2022-11-20T10:33:29;28.10;;;15.60;;
47772;SDS011;33534;51.028;13.716;2022-11-20T10:36:20;26.83;;;13.98;;
47772;SDS011;33534;51.028;13.716;2022-11-20T10:39:26;25.17;;;13.80;;
47772;SDS011;33534;51.028;13.716;2022-11-20T10:45:02;24.58;;;13.25;;
47772;SDS011;33534;51.028;13.716;2022-11-20T11:03:46;21.35;;;12.85;;
47772;SDS011;33534;51.028;13.716;2022-11-20T11:07:01;22.08;;;12.02;;
47772;SDS011;33534;51.028;13.716;2022-11-20T11:12:20;19.17;;;11.35;;
47772;SDS011;33534;51.028;13.716;2022-11-20T11:24:53;14.07;;;6.57;;
47772;SDS011;33534;51.028;13.716;2022-11-20T11:27:30;11.20;;;6.60;;
47772;SDS011;33534;51.028;13.716;2022-11-20T11:43:16;12.85;;;7.70;;
47772;SDS011;33534;51.028;13.716;2022-11-20T11:46:52;15.45;;;8.32;;
47772;SDS011;33534;51.028;13.716;2022-11-20T11:48:58;13.40;;;7.95;;
47772;SDS011;33534;51.028;13.716;2022-11-20T12:19:45;14.02;;;8.20;;
47772;SDS011;33534;51.028;13.716;2022-11-20T13:46:34;11.57;;;7.32;;
47772;SDS011;33534;51.028;13.716;2022-11-20T14:16:35;11.80;;;6.53;;
47772;SDS011;33534;51.028;13.716;2022-11-20T14:31:23;13.50;;;7.88;;
47772;SDS011;33534;51.028;13.716;2022-11-20T14:37:43;13.32;;;7.53;;
47772;SDS011;33534;51.028;13.716;2022-11-20T14:43:02;13.30;;;7.90;;
47772;SDS011;33534;51.028;13.716;2022-11-20T14:45:50;13.15;;;7.90;;
47772;SDS011;33534;51.028;13.716;2022-11-20T14:48:25;15.55;;;9.18;;
47772;SDS011;33534;51.028;13.716;2022-11-20T14:51:00;14.20;;;8.07;;
47772;SDS011;33534;51.028;13.716;2022-11-20T14:53:33;14.27;;;8.45;;
47772;SDS011;33534;51.028;13.716;2022-11-20T14:56:00;13.95;;;8.55;;
47772;SDS011;33534;51.028;13.716;2022-11-20T14:58:32;15.00;;;8.85;;
47772;SDS011;33534;51.028;13.716;2022-11-20T15:01:00;15.20;;;8.45;;
47772;SDS011;33534;51.028;13.716;2022-11-20T15:03:33;16.40;;;9.73;;
47772;SDS011;33534;51.028;13.716;2022-11-20T15:06:02;15.38;;;9.45;;
47772;SDS011;33534;51.028;13.716;2022-11-20T15:08:32;19.35;;;10.35;;
47772;SDS011;33534;51.028;13.716;2022-11-20T15:11:14;19.23;;;10.65;;
47772;SDS011;33534;51.028;13.716;2022-11-20T15:13:50;16.52;;;9.40;;
47772;SDS011;33534;51.028;13.716;2022-11-20T15:16:23;19.38;;;9.95;;
47772;SDS011;33534;51.028;13.716;2022-11-20T15:18:51;20.17;;;10.25;;
47772;SDS011;33534;51.028;13.716;2022-11-20T15:21:20;20.40;;;11.73;;
47772;SDS011;33534;51.028;13.716;2022-11-20T15:23:50;19.50;;;10.93;;
47772;SDS011;33534;51.028;13.716;2022-11-20T15:26:23;20.20;;;11.95;;
47772;SDS011;33534;51.028;13.716;2022-11-20T15:28:53;21.20;;;11.10;;
47772;SDS011;33534;51.028;13.716;2022-11-20T15:31:22;22.35;;;12.40;;
47772;SDS011;33534;51.028;13.716;2022-11-20T15:33:56;22.75;;;13.18;;
47772;SDS011;33534;51.028;13.716;2022-11-20T15:36:31;23.35;;;13.05;;
47772;SDS011;33534;51.028;13.716;2022-11-20T15:39:08;28.67;;;15.10;;
47772;SDS011;33534;51.028;13.716;2022-11-20T15:41:36;28.67;;;15.05;;
47772;SDS011;33534;51.028;13.716;2022-11-20T15:44:38;38.72;;;19.35;;
47772;SDS011;33534;51.028;13.716;2022-11-20T15:47:20;47.92;;;22.75;;
47772;SDS011;33534;51.028;13.716;2022-11-20T15:49:57;36.40;;;17.85;;
47772;SDS011;33534;51.028;13.716;2022-11-20T15:52:31;31.13;;;14.60;;
47772;SDS011;33534;51.028;13.716;2022-11-20T15:57:45;26.38;;;13.27;;
47772;SDS011;33534;51.028;13.716;2022-11-20T16:00:32;26.65;;;13.07;;
47772;SDS011;33534;51.028;13.716;2022-11-20T16:06:46;31.75;;;14.80;;
47772;SDS011;33534;51.028;13.716;2022-11-20T16:15:50;21.30;;;11.82;;
47772;SDS011;33534;51.028;13.716;2022-11-20T16:24:52;27.48;;;14.07;;
47772;SDS011;33534;51.028;13.716;2022-11-20T16:27:47;26.75;;;13.70;;
47772;SDS011;33534;51.028;13.716;2022-11-20T16:30:49;28.30;;;14.70;;
47772;SDS011;33534;51.028;13.716;2022-11-20T16:33:36;28.65;;;14.60;;
47772;SDS011;33534;51.028;13.716;2022-11-20T16:36:18;29.88;;;15.60;;
47772;SDS011;33534;51.028;13.716;2022-11-20T16:39:13;69.22;;;31.98;;
47772;SDS011;33534;51.028;13.716;2022-11-20T16:45:01;222.52;;;78.65;;
47772;SDS011;33534;51.028;13.716;2022-11-20T16:47:35;160.13;;;59.05;;
47772;SDS011;33534;51.028;13.716;2022-11-20T16:53:13;152.18;;;53.92;;
47772;SDS011;33534;51.028;13.716;2022-11-20T17:02:35;43.65;;;18.77;;
47772;SDS011;33534;51.028;13.716;2022-11-20T17:05:12;43.20;;;21.08;;
47772;SDS011;33534;51.028;13.716;2022-11-20T17:08:16;39.03;;;17.03;;
47772;SDS011;33534;51.028;13.716;2022-11-20T17:11:10;42.70;;;19.75;;
47772;SDS011;33534;51.028;13.716;2022-11-20T17:13:48;73.28;;;29.30;;
47772;SDS011;33534;51.028;13.716;2022-11-20T17:19:27;44.25;;;20.35;;
47772;SDS011;33534;51.028;13.716;2022-11-20T17:22:09;42.55;;;19.80;;
47772;SDS011;33534;51.028;13.716;2022-11-20T17:24:54;45.55;;;19.92;;
47772;SDS011;33534;51.028;13.716;2022-11-20T17:30:46;46.95;;;21.23;;
47772;SDS011;33534;51.028;13.716;2022-11-20T17:33:43;45.08;;;21.33;;
47772;SDS011;33534;51.028;13.716;2022-11-20T17:36:31;44.20;;;19.92;;
47772;SDS011;33534;51.028;13.716;2022-11-20T17:42:14;41.72;;;18.92;;
47772;SDS011;33534;51.028;13.716;2022-11-20T17:45:06;41.70;;;19.83;;
47772;SDS011;33534;51.028;13.716;2022-11-20T17:50:30;46.17;;;19.02;;
47772;SDS011;33534;51.028;13.716;2022-11-20T17:55:39;38.20;;;18.17;;
47772;SDS011;33534;51.028;13.716;2022-11-20T18:01:22;35.30;;;17.52;;
47772;SDS011;33534;51.028;13.716;2022-11-20T18:03:50;40.00;;;17.63;;
47772;SDS011;33534;51.028;13.716;2022-11-20T18:06:28;32.97;;;16.50;;
47772;SDS011;33534;51.028;13.716;2022-11-20T18:09:23;35.22;;;17.48;;
47772;SDS011;33534;51.028;13.716;2022-11-20T18:12:19;46.33;;;19.08;;
47772;SDS011;33534;51.028;13.716;2022-11-20T18:14:51;32.30;;;16.83;;
47772;SDS011;33534;51.028;13.716;2022-11-20T18:17:20;35.45;;;17.10;;
47772;SDS011;33534;51.028;13.716;2022-11-20T18:19:54;33.90;;;17.25;;
47772;SDS011;33534;51.028;13.716;2022-11-20T18:22:20;37.47;;;18.98;;
47772;SDS011;33534;51.028;13.716;2022-11-20T18:24:49;32.53;;;15.32;;
47772;SDS011;33534;51.028;13.716;2022-11-20T18:27:21;33.58;;;16.10;;
47772;SDS011;33534;51.028;13.716;2022-11-20T18:29:52;29.10;;;14.43;;
47772;SDS011;33534;51.028;13.716;2022-11-20T18:32:19;33.15;;;16.35;;
47772;SDS011;33534;51.028;13.716;2022-11-20T18:34:50;32.03;;;16.02;;
47772;SDS011;33534;51.028;13.716;2022-11-20T18:37:16;37.28;;;17.63;;
47772;SDS011;33534;51.028;13.716;2022-11-20T18:39:45;32.65;;;16.70;;
47772;SDS011;33534;51.028;13.716;2022-11-20T18:42:14;39.92;;;18.10;;
47772;SDS011;33534;51.028;13.716;2022-11-20T18:44:59;41.60;;;18.77;;
47772;SDS011;33534;51.028;13.716;2022-11-20T18:47:29;36.38;;;18.23;;
47772;SDS011;33534;51.028;13.716;2022-11-20T18:50:00;41.03;;;18.48;;
47772;SDS011;33534;51.028;13.716;2022-11-20T18:52:29;36.03;;;16.80;;
47772;SDS011;33534;51.028;13.716;2022-11-20T18:55:02;36.78;;;17.60;;
47772;SDS011;33534;51.028;13.716;2022-11-20T18:57:28;32.42;;;15.75;;
47772;SDS011;33534;51.028;13.716;2022-11-20T18:59:55;36.67;;;17.10;;
47772;SDS011;33534;51.028;13.716;2022-11-20T19:02:24;32.85;;;16.10;;
47772;SDS011;33534;51.028;13.716;2022-11-20T19:04:52;28.90;;;15.93;;
47772;SDS011;33534;51.028;13.716;2022-11-20T19:07:25;32.45;;;16.00;;
47772;SDS011;33534;51.028;13.716;2022-11-20T19:09:59;32.65;;;14.88;;
47772;SDS011;33534;51.028;13.716;2022-11-20T19:12:25;31.73;;;14.77;;
47772;SDS011;33534;51.028;13.716;2022-11-20T19:14:53;31.88;;;15.15;;
47772;SDS011;33534;51.028;13.716;2022-11-20T19:17:22;38.78;;;18.20;;
47772;SDS011;33534;51.028;13.716;2022-11-20T19:19:48;42.38;;;20.65;;
47772;SDS011;33534;51.028;13.716;2022-11-20T19:22:15;45.45;;;20.98;;
47772;SDS011;33534;51.028;13.716;2022-11-20T19:24:47;41.95;;;19.70;;
47772;SDS011;33534;51.028;13.716;2022-11-20T19:27:16;42.10;;;22.05;;
47772;SDS011;33534;51.028;13.716;2022-11-20T19:29:45;43.25;;;20.98;;
47772;SDS011;33534;51.028;13.716;2022-11-20T19:32:11;40.92;;;19.63;;
47772;SDS011;33534;51.028;13.716;2022-11-20T19:34:37;41.05;;;19.33;;
47772;SDS011;33534;51.028;13.716;2022-11-20T19:37:03;31.27;;;16.65;;
47772;SDS011;33534;51.028;13.716;2022-11-20T19:39:29;37.60;;;19.10;;
47772;SDS011;33534;51.028;13.716;2022-11-20T19:41:55;39.45;;;18.30;;
47772;SDS011;33534;51.028;13.716;2022-11-20T19:44:21;36.30;;;18.25;;
47772;SDS011;33534;51.028;13.716;2022-11-20T19:46:47;34.45;;;16.35;;
47772;SDS011;33534;51.028;13.716;2022-11-20T19:49:15;34.97;;;16.75;;
47772;SDS011;33534;51.028;13.716;2022-11-20T19:51:45;35.97;;;17.33;;
47772;SDS011;33534;51.028;13.716;2022-11-20T19:54:11;32.10;;;17.40;;
47772;SDS011;33534;51.028;13.716;2022-11-20T19:56:38;32.10;;;16.00;;
47772;SDS011;33534;51.028;13.716;2022-11-20T19:59:04;28.50;;;15.48;;
47772;SDS011;33534;51.028;13.716;2022-11-20T20:01:33;31.77;;;16.15;;
47772;SDS011;33534;51.028;13.716;2022-11-20T20:04:02;35.92;;;16.48;;
47772;SDS011;33534;51.028;13.716;2022-11-20T20:06:29;33.25;;;17.13;;
47772;SDS011;33534;51.028;13.716;2022-11-20T20:08:57;30.35;;;16.95;;
47772;SDS011;33534;51.028;13.716;2022-11-20T20:11:31;31.95;;;14.52;;
47772;SDS011;33534;51.028;13.716;2022-11-20T20:13:59;28.00;;;15.55;;
47772;SDS011;33534;51.028;13.716;2022-11-20T20:16:25;39.45;;;15.65;;